createdAt,value
2023-01-17T00:02:10.694Z,5.20
2023-01-17T00:05:01.124Z,5.20
2023-01-17T00:07:47.541Z,5.20
2023-01-17T00:10:18.098Z,5.20
2023-01-17T00:12:52.016Z,5.20
2023-01-17T00:15:23.063Z,5.20
2023-01-17T00:17:53.946Z,5.10
2023-01-17T00:20:41.455Z,5.20
2023-01-17T00:23:28.463Z,5.10
2023-01-17T00:26:06.165Z,5.10
2023-01-17T00:28:35.595Z,5.10
2023-01-17T00:31:03.402Z,5.10
2023-01-17T00:33:32.762Z,5.10
2023-01-17T00:36:01.242Z,5.10
2023-01-17T00:38:30.297Z,5.10
2023-01-17T00:41:03.143Z,5.10
2023-01-17T00:43:49.242Z,5.10
2023-01-17T00:46:35.679Z,5.10
2023-01-17T00:49:23.831Z,5.00
2023-01-17T00:52:10.119Z,4.90
2023-01-17T00:54:56.532Z,4.90
2023-01-17T00:57:42.935Z,4.90
2023-01-17T01:00:30.074Z,4.90
2023-01-17T01:03:16.206Z,4.90
2023-01-17T01:06:03.610Z,4.90
2023-01-17T01:08:49.744Z,4.90
2023-01-17T01:11:38.415Z,4.90
2023-01-17T01:14:25.244Z,5.00
2023-01-17T01:17:11.310Z,5.00
2023-01-17T01:19:56.974Z,5.00
2023-01-17T01:22:44.184Z,5.00
2023-01-17T01:25:30.352Z,5.00
2023-01-17T01:28:22.053Z,5.00
2023-01-17T01:31:08.180Z,5.00
2023-01-17T01:33:36.496Z,5.10
2023-01-17T01:36:05.211Z,5.00
2023-01-17T01:38:35.137Z,5.00
2023-01-17T01:41:03.961Z,5.00
2023-01-17T01:43:45.182Z,5.00
2023-01-17T01:46:17.298Z,5.00
2023-01-17T01:48:50.946Z,5.10
2023-01-17T01:51:24.086Z,5.10
2023-01-17T01:53:59.902Z,5.20
2023-01-17T01:56:30.663Z,5.20
2023-01-17T01:59:01.695Z,5.20
2023-01-17T02:01:32.019Z,5.10
2023-01-17T02:04:00.937Z,5.10
2023-01-17T02:06:33.718Z,5.10
2023-01-17T02:09:05.553Z,5.10
2023-01-17T02:11:34.964Z,5.10
2023-01-17T02:14:03.545Z,5.10
2023-01-17T02:16:45.143Z,5.20
2023-01-17T02:19:55.415Z,5.20
2023-01-17T02:22:54.904Z,5.20
2023-01-17T02:25:51.874Z,5.20
2023-01-17T02:28:39.948Z,5.20
2023-01-17T02:31:15.939Z,5.20
2023-01-17T02:33:51.317Z,5.20
2023-01-17T02:36:24.152Z,5.10
2023-01-17T02:38:53.854Z,5.20
2023-01-17T02:41:26.229Z,5.20
2023-01-17T02:43:55.456Z,5.20
2023-01-17T02:46:25.349Z,5.30
2023-01-17T02:48:54.920Z,5.30
2023-01-17T02:51:39.113Z,5.20
2023-01-17T02:54:27.734Z,5.20
2023-01-17T02:57:10.809Z,5.30
2023-01-17T02:59:41.470Z,5.30
2023-01-17T03:02:22.764Z,5.30
2023-01-17T03:04:56.705Z,5.30
2023-01-17T03:07:28.259Z,5.30
2023-01-17T03:10:00.454Z,5.30
2023-01-17T03:12:30.115Z,5.30
2023-01-17T03:14:58.843Z,5.30
2023-01-17T03:17:33.254Z,5.30
2023-01-17T03:20:01.676Z,5.30
2023-01-17T03:22:30.155Z,5.30
2023-01-17T03:24:58.878Z,5.30
2023-01-17T03:27:27.273Z,5.30
2023-01-17T03:29:55.913Z,5.30
2023-01-17T03:32:24.452Z,5.30
2023-01-17T03:34:54.344Z,5.20
2023-01-17T03:37:22.806Z,5.20
2023-01-17T03:39:51.320Z,5.30
2023-01-17T03:42:19.804Z,5.30
2023-01-17T03:44:48.255Z,5.30
2023-01-17T03:47:16.793Z,5.30
2023-01-17T03:49:45.300Z,5.30
2023-01-17T03:52:15.334Z,5.30
2023-01-17T03:54:43.833Z,5.40
2023-01-17T03:57:12.216Z,5.40
2023-01-17T03:59:40.635Z,5.40
2023-01-17T04:02:09.259Z,5.50
2023-01-17T04:04:37.830Z,5.50
2023-01-17T04:07:06.467Z,5.50
2023-01-17T04:09:36.401Z,5.50
2023-01-17T04:12:05.376Z,5.50
2023-01-17T04:14:33.856Z,5.50
2023-01-17T04:17:04.227Z,5.50
2023-01-17T04:19:35.266Z,5.60
2023-01-17T04:22:03.658Z,5.60
2023-01-17T04:24:33.194Z,5.50
2023-01-17T04:27:03.144Z,5.50
2023-01-17T04:29:31.918Z,5.50
2023-01-17T04:32:00.342Z,5.50
2023-01-17T04:34:28.845Z,5.40
2023-01-17T04:36:57.349Z,5.40
2023-01-17T04:39:25.828Z,5.30
2023-01-17T04:41:54.287Z,5.30
2023-01-17T04:44:24.134Z,5.20
2023-01-17T04:46:52.667Z,5.20
2023-01-17T04:49:21.064Z,5.10
2023-01-17T04:51:49.883Z,5.10
2023-01-17T04:54:18.523Z,5.10
2023-01-17T04:56:46.965Z,5.00
2023-01-17T04:59:15.517Z,5.00
2023-01-17T05:01:45.353Z,4.90
2023-01-17T05:04:13.823Z,4.90
2023-01-17T05:06:44.849Z,4.90
2023-01-17T05:09:13.284Z,4.90
2023-01-17T05:11:41.762Z,4.80
2023-01-17T05:14:11.504Z,4.80
2023-01-17T05:16:39.953Z,4.80
2023-01-17T05:19:09.925Z,4.70
2023-01-17T05:21:38.415Z,4.60
2023-01-17T05:24:07.516Z,4.70
2023-01-17T05:26:36.025Z,4.60
2023-01-17T05:29:04.522Z,4.40
2023-01-17T05:31:36.262Z,4.40
2023-01-17T05:34:05.338Z,4.40
2023-01-17T05:36:35.327Z,4.30
2023-01-17T05:39:03.914Z,4.30
2023-01-17T05:41:32.451Z,4.30
2023-01-17T05:44:01.043Z,4.30
2023-01-17T05:46:29.658Z,4.20
2023-01-17T05:48:58.318Z,4.20
2023-01-17T05:51:26.899Z,4.10
2023-01-17T05:53:56.886Z,4.10
2023-01-17T05:56:25.527Z,4.10
2023-01-17T05:58:54.051Z,4.10
2023-01-17T06:01:22.546Z,4.10
2023-01-17T06:03:51.156Z,4.10
2023-01-17T06:06:19.603Z,4.10
2023-01-17T06:08:48.076Z,4.10
2023-01-17T06:11:18.757Z,4.10
2023-01-17T06:13:49.192Z,4.10
2023-01-17T06:16:17.720Z,4.10
2023-01-17T06:18:46.726Z,4.10
2023-01-17T06:21:15.314Z,4.10
2023-01-17T06:23:43.778Z,4.10
2023-01-17T06:26:12.394Z,4.10
2023-01-17T06:28:42.200Z,4.10
2023-01-17T06:31:11.010Z,4.10
2023-01-17T06:33:39.571Z,4.10
2023-01-17T06:36:08.291Z,4.20
2023-01-17T06:38:36.728Z,4.20
2023-01-17T06:41:06.118Z,4.20
2023-01-17T06:43:35.058Z,4.20
2023-01-17T06:46:04.939Z,4.20
2023-01-17T06:48:33.481Z,4.30
2023-01-17T06:51:01.961Z,4.30
2023-01-17T06:53:30.418Z,4.30
2023-01-17T06:55:59.171Z,4.30
2023-01-17T06:58:27.658Z,4.30
2023-01-17T07:00:56.282Z,4.40
2023-01-17T07:03:33.144Z,4.40
2023-01-17T07:06:03.170Z,4.40
2023-01-17T07:08:32.042Z,4.40
2023-01-17T07:11:01.891Z,4.40
2023-01-17T07:13:31.850Z,4.40
2023-01-17T07:16:02.213Z,4.40
2023-01-17T07:18:32.745Z,4.40
2023-01-17T07:21:01.369Z,4.50
2023-01-17T07:23:29.858Z,4.50
2023-01-17T07:25:59.503Z,4.50
2023-01-17T07:28:29.360Z,4.40
2023-01-17T07:30:57.902Z,4.50
2023-01-17T07:33:26.360Z,4.50
2023-01-17T07:35:56.309Z,4.50
2023-01-17T07:38:24.728Z,4.50
2023-01-17T07:40:53.193Z,4.50
2023-01-17T07:43:21.700Z,4.50
2023-01-17T07:45:51.766Z,4.60
2023-01-17T07:48:21.840Z,4.60
2023-01-17T07:50:55.530Z,4.60
2023-01-17T07:53:25.013Z,4.70
2023-01-17T07:55:53.627Z,4.60
2023-01-17T07:58:22.859Z,4.60
2023-01-17T08:00:51.355Z,4.70
2023-01-17T08:03:19.844Z,4.60
2023-01-17T08:05:57.763Z,4.70
2023-01-17T08:08:26.103Z,4.70
2023-01-17T08:10:57.347Z,4.70
2023-01-17T08:13:26.542Z,4.80
2023-01-17T08:15:55.829Z,4.80
2023-01-17T08:18:24.316Z,4.70
2023-01-17T08:20:52.683Z,4.70
2023-01-17T08:23:23.027Z,4.70
2023-01-17T08:25:51.576Z,4.70
2023-01-17T08:28:20.019Z,4.70
2023-01-17T08:30:48.449Z,4.70
2023-01-17T08:33:17.122Z,4.80
2023-01-17T08:35:53.418Z,4.80
2023-01-17T08:38:23.950Z,4.80
2023-01-17T08:40:52.573Z,4.80
2023-01-17T08:43:21.491Z,4.90
2023-01-17T08:45:51.364Z,4.90
2023-01-17T08:48:19.869Z,5.00
2023-01-17T08:50:48.332Z,5.10
2023-01-17T08:53:18.235Z,5.20
2023-01-17T08:55:48.392Z,5.30
2023-01-17T08:58:16.929Z,5.50
2023-01-17T09:00:45.945Z,5.60
2023-01-17T09:03:14.815Z,5.50
2023-01-17T09:05:44.819Z,5.40
2023-01-17T09:08:13.347Z,5.40
2023-01-17T09:10:41.718Z,5.40
2023-01-17T09:13:11.545Z,5.40
2023-01-17T09:15:40.084Z,5.40
2023-01-17T09:18:08.537Z,5.40
2023-01-17T09:20:36.891Z,5.30
2023-01-17T09:23:05.815Z,5.40
2023-01-17T09:25:34.295Z,5.40
2023-01-17T09:28:02.638Z,5.40
2023-01-17T09:30:34.478Z,5.40
2023-01-17T09:33:02.903Z,5.50
2023-01-17T09:35:31.258Z,5.70
2023-01-17T09:37:59.664Z,5.80
2023-01-17T09:40:28.169Z,5.80
2023-01-17T09:43:01.571Z,5.80
2023-01-17T09:45:34.656Z,5.70
2023-01-17T09:48:10.492Z,5.70
2023-01-17T09:50:49.119Z,5.80
2023-01-17T09:53:21.021Z,6.10
2023-01-17T09:55:54.793Z,6.30
2023-01-17T09:58:32.401Z,6.60
2023-01-17T10:01:12.367Z,7.10
2023-01-17T10:03:50.712Z,7.80
2023-01-17T10:06:32.215Z,8.30
2023-01-17T10:09:46.904Z,8.30
2023-01-17T10:12:28.305Z,8.50
2023-01-17T10:15:24.467Z,8.60
2023-01-17T10:18:02.402Z,8.70
2023-01-17T10:20:45.204Z,9.00
2023-01-17T10:23:43.505Z,9.20
2023-01-17T10:26:16.421Z,9.10
2023-01-17T10:28:48.749Z,8.60
2023-01-17T10:31:23.302Z,8.20
2023-01-17T10:33:55.132Z,7.80
2023-01-17T10:36:25.822Z,7.40
2023-01-17T10:38:57.311Z,7.20
2023-01-17T10:41:29.842Z,7.10
2023-01-17T10:44:07.543Z,6.90
2023-01-17T10:46:40.835Z,6.70
2023-01-17T10:49:18.070Z,6.50
2023-01-17T10:52:00.417Z,6.20
2023-01-17T10:54:52.811Z,6.00
2023-01-17T10:57:23.563Z,5.90
2023-01-17T10:59:52.072Z,5.60
2023-01-17T11:02:25.426Z,5.50
2023-01-17T11:04:57.189Z,5.30
2023-01-17T11:07:27.234Z,5.10
2023-01-17T11:09:57.793Z,5.00
2023-01-17T11:12:30.583Z,4.90
2023-01-17T11:15:01.134Z,4.90
2023-01-17T11:17:30.592Z,4.90
2023-01-17T11:20:21.148Z,5.00
2023-01-17T11:23:06.121Z,5.00
2023-01-17T11:25:35.410Z,4.90
2023-01-17T11:28:10.325Z,4.90
2023-01-17T11:30:38.911Z,4.80
2023-01-17T11:33:27.080Z,4.80
2023-01-17T11:35:57.769Z,4.80
2023-01-17T11:38:26.841Z,4.90
2023-01-17T11:41:15.429Z,5.00
2023-01-17T11:43:52.641Z,5.00
2023-01-17T11:46:21.819Z,5.10
2023-01-17T11:48:55.887Z,5.10
2023-01-17T11:51:30.080Z,5.20
2023-01-17T11:54:16.595Z,5.30
2023-01-17T11:56:46.556Z,5.20
2023-01-17T11:59:30.150Z,5.20
2023-01-17T12:02:33.219Z,5.20
2023-01-17T12:05:17.592Z,5.30
2023-01-17T12:07:56.326Z,5.30
2023-01-17T12:10:32.462Z,5.60
2023-01-17T12:13:27.576Z,5.70
2023-01-17T12:16:27.321Z,5.70
2023-01-17T12:19:07.211Z,5.60
2023-01-17T12:21:47.990Z,5.50
2023-01-17T12:24:57.097Z,5.20
2023-01-17T12:27:36.000Z,4.90
2023-01-17T12:30:30.891Z,4.80
2023-01-17T12:33:13.460Z,4.60
2023-01-17T12:35:46.592Z,4.50
2023-01-17T12:38:32.094Z,4.40
2023-01-17T12:41:07.699Z,4.40
2023-01-17T12:43:40.652Z,4.40
2023-01-17T12:46:13.065Z,4.50
2023-01-17T12:48:42.316Z,4.60
2023-01-17T12:51:17.568Z,4.50
2023-01-17T12:53:51.463Z,4.50
2023-01-17T12:56:28.180Z,4.40
2023-01-17T12:59:02.479Z,4.30
2023-01-17T13:01:32.898Z,4.20
2023-01-17T13:04:17.803Z,4.10
2023-01-17T13:07:01.969Z,3.90
2023-01-17T13:09:39.151Z,3.80
2023-01-17T13:12:14.058Z,3.70
2023-01-17T13:14:42.610Z,3.70
2023-01-17T13:17:25.848Z,3.60
2023-01-17T13:20:02.336Z,3.50
2023-01-17T13:22:33.332Z,3.60
2023-01-17T13:25:12.998Z,3.60
2023-01-17T13:28:03.033Z,3.60
2023-01-17T13:30:47.825Z,3.60
2023-01-17T13:33:37.091Z,3.60
2023-01-17T13:36:30.008Z,3.60
2023-01-17T13:39:12.273Z,3.60
2023-01-17T13:41:51.572Z,3.60
2023-01-17T13:44:25.464Z,3.70
2023-01-17T13:46:56.580Z,3.80
2023-01-17T13:49:35.568Z,3.90
2023-01-17T13:52:09.783Z,4.00
2023-01-17T13:54:46.140Z,4.10
2023-01-17T13:57:43.900Z,4.10
2023-01-17T14:00:50.625Z,4.20
2023-01-17T14:04:00.820Z,4.20
2023-01-17T14:06:36.508Z,4.10
2023-01-17T14:09:14.661Z,4.10
2023-01-17T14:11:56.579Z,4.00
2023-01-17T14:14:44.638Z,4.00
2023-01-17T14:17:48.832Z,3.90
2023-01-17T14:20:54.391Z,3.90
2023-01-17T14:24:07.501Z,4.00
2023-01-17T14:26:49.920Z,4.00
2023-01-17T14:29:49.630Z,3.90
2023-01-17T14:32:20.756Z,3.90
2023-01-17T14:34:50.880Z,3.90
2023-01-17T14:37:29.137Z,3.90
2023-01-17T14:39:57.772Z,3.90
2023-01-17T14:42:30.580Z,3.90
2023-01-17T14:45:01.615Z,3.90
2023-01-17T14:47:33.344Z,3.90
2023-01-17T14:50:21.747Z,3.90
2023-01-17T14:52:50.249Z,3.80
2023-01-17T14:55:20.728Z,3.70
2023-01-17T14:57:57.229Z,3.60
2023-01-17T15:00:29.315Z,3.60
2023-01-17T15:03:00.234Z,3.60
2023-01-17T15:05:30.339Z,3.60
2023-01-17T15:08:01.262Z,3.60
2023-01-17T15:10:31.975Z,3.70
2023-01-17T15:13:10.867Z,3.70
2023-01-17T15:15:42.045Z,3.80
2023-01-17T15:18:26.505Z,3.80
2023-01-17T15:21:02.557Z,3.90
2023-01-17T15:23:34.717Z,3.90
2023-01-17T15:26:04.921Z,3.90
2023-01-17T15:28:35.797Z,3.90
2023-01-17T15:31:09.047Z,3.90
2023-01-17T15:33:43.504Z,3.90
2023-01-17T15:36:29.913Z,3.90
2023-01-17T15:39:07.512Z,4.00
2023-01-17T15:41:39.729Z,4.00
2023-01-17T15:44:36.116Z,4.00
2023-01-17T15:47:31.431Z,4.10
2023-01-17T15:50:02.155Z,4.10
2023-01-17T15:52:31.362Z,4.10
2023-01-17T15:55:02.241Z,4.10
2023-01-17T15:57:36.915Z,4.10
2023-01-17T16:00:22.107Z,4.10
2023-01-17T16:02:55.776Z,4.10
2023-01-17T16:05:34.911Z,4.10
2023-01-17T16:08:27.290Z,4.00
2023-01-17T16:10:59.429Z,4.00
2023-01-17T16:13:31.802Z,3.90
2023-01-17T16:16:20.625Z,3.80
2023-01-17T16:18:50.721Z,3.80
2023-01-17T16:21:22.755Z,3.90
2023-01-17T16:23:53.078Z,3.80
2023-01-17T16:26:22.232Z,3.80
2023-01-17T16:28:51.835Z,3.80
2023-01-17T16:31:22.213Z,3.70
2023-01-17T16:33:52.007Z,3.70
2023-01-17T16:36:23.050Z,3.70
2023-01-17T16:38:53.337Z,3.70
2023-01-17T16:41:37.141Z,3.70
2023-01-17T16:44:07.390Z,3.70
2023-01-17T16:46:38.758Z,3.70
2023-01-17T16:49:07.582Z,3.70
2023-01-17T16:51:36.054Z,3.60
2023-01-17T16:54:04.825Z,3.50
2023-01-17T16:56:33.620Z,3.40
2023-01-17T16:59:02.141Z,3.40
2023-01-17T17:01:30.596Z,3.30
2023-01-17T17:04:00.685Z,3.30
2023-01-17T17:06:29.281Z,3.30
2023-01-17T17:09:00.029Z,3.30
2023-01-17T17:11:28.929Z,3.30
2023-01-17T17:13:57.593Z,3.40
2023-01-17T17:16:30.098Z,3.40
2023-01-17T17:19:02.416Z,3.40
2023-01-17T17:21:32.842Z,3.30
2023-01-17T17:24:02.532Z,3.30
2023-01-17T17:26:34.699Z,3.30
2023-01-17T17:29:04.688Z,3.20
2023-01-17T17:31:33.540Z,3.10
2023-01-17T17:34:05.333Z,3.10
2023-01-17T17:36:36.910Z,3.00
2023-01-17T17:39:09.438Z,2.90
2023-01-17T17:41:42.734Z,2.90
2023-01-17T17:44:11.687Z,2.80
2023-01-17T17:46:43.214Z,2.70
2023-01-17T17:49:19.921Z,2.70
2023-01-17T17:51:53.842Z,2.70
2023-01-17T17:54:24.871Z,2.70
2023-01-17T17:57:00.153Z,2.80
2023-01-17T17:59:30.212Z,2.70
2023-01-17T18:02:04.580Z,2.70
2023-01-17T18:04:36.900Z,2.70
2023-01-17T18:07:11.610Z,2.70
2023-01-17T18:09:43.294Z,2.70
2023-01-17T18:12:12.251Z,2.70
2023-01-17T18:14:41.335Z,2.70
2023-01-17T18:17:09.944Z,2.70
2023-01-17T18:19:40.417Z,2.80
2023-01-17T18:22:09.262Z,2.80
2023-01-17T18:24:41.149Z,2.80
2023-01-17T18:27:10.757Z,2.70
2023-01-17T18:29:40.075Z,2.70
2023-01-17T18:32:13.424Z,2.70
2023-01-17T18:34:45.138Z,2.70
2023-01-17T18:37:15.901Z,2.80
2023-01-17T18:39:47.049Z,2.70
2023-01-17T18:42:16.101Z,2.70
2023-01-17T18:44:49.930Z,2.70
2023-01-17T18:47:18.771Z,2.60
2023-01-17T18:49:56.858Z,2.60
2023-01-17T18:52:30.218Z,2.60
2023-01-17T18:55:00.152Z,2.60
2023-01-17T18:57:29.109Z,2.60
2023-01-17T19:00:00.272Z,2.60
2023-01-17T19:02:32.064Z,2.60
2023-01-17T19:05:08.556Z,2.60
2023-01-17T19:07:37.329Z,2.60
2023-01-17T19:10:09.754Z,2.60
2023-01-17T19:12:39.862Z,2.60
2023-01-17T19:15:09.851Z,2.60
2023-01-17T19:17:42.618Z,2.60
2023-01-17T19:20:13.899Z,2.60
2023-01-17T19:22:44.481Z,2.60
2023-01-17T19:25:16.221Z,2.60
2023-01-17T19:27:51.961Z,2.60
2023-01-17T19:30:24.969Z,2.50
2023-01-17T19:32:56.319Z,2.50
2023-01-17T19:35:28.543Z,2.50
2023-01-17T19:38:06.373Z,2.50
2023-01-17T19:40:37.848Z,2.50
2023-01-17T19:43:09.100Z,2.50
2023-01-17T19:45:41.616Z,2.50
2023-01-17T19:48:18.778Z,2.50
2023-01-17T19:50:51.740Z,2.50
2023-01-17T19:53:24.444Z,2.50
2023-01-17T19:56:12.069Z,2.50
2023-01-17T19:58:47.320Z,2.50
2023-01-17T20:01:18.263Z,2.50
2023-01-17T20:03:50.616Z,2.50
2023-01-17T20:06:25.165Z,2.50
2023-01-17T20:08:59.186Z,2.40
2023-01-17T20:11:36.372Z,2.40
2023-01-17T20:14:17.927Z,2.50
2023-01-17T20:16:55.815Z,2.40
2023-01-17T20:22:14.289Z,2.50
2023-01-17T20:24:46.390Z,2.50
2023-01-17T20:27:22.244Z,2.50
2023-01-17T20:29:51.995Z,2.50
2023-01-17T20:32:24.765Z,2.40
2023-01-17T20:34:58.079Z,2.40
2023-01-17T20:37:39.977Z,2.40
2023-01-17T20:40:11.171Z,2.40
2023-01-17T20:42:45.172Z,2.40
2023-01-17T20:45:17.290Z,2.40
2023-01-17T20:47:57.798Z,2.40
2023-01-17T20:50:28.012Z,2.40
2023-01-17T20:53:05.775Z,2.40
2023-01-17T20:55:37.609Z,2.40
2023-01-17T20:58:09.199Z,2.40
2023-01-17T21:00:40.596Z,2.40
2023-01-17T21:03:10.049Z,2.30
2023-01-17T21:05:42.951Z,2.30
2023-01-17T21:08:16.621Z,2.30
2023-01-17T21:10:49.673Z,2.30
2023-01-17T21:13:40.414Z,2.30
2023-01-17T21:16:14.624Z,2.30
2023-01-17T21:18:50.106Z,2.30
2023-01-17T21:21:22.653Z,2.20
2023-01-17T21:23:58.261Z,2.20
2023-01-17T21:26:33.780Z,2.20
2023-01-17T21:29:05.096Z,2.20
2023-01-17T21:31:41.512Z,2.20
2023-01-17T21:34:15.491Z,2.20
2023-01-17T21:36:44.772Z,2.20
2023-01-17T21:39:18.273Z,2.20
2023-01-17T21:41:51.352Z,2.20
2023-01-17T21:44:36.821Z,2.10
2023-01-17T21:47:07.424Z,2.20
2023-01-17T21:49:36.862Z,2.10
2023-01-17T21:52:28.555Z,2.10
2023-01-17T21:55:21.861Z,2.10
2023-01-17T21:58:08.548Z,2.10
2023-01-17T22:00:42.154Z,2.10
2023-01-17T22:03:14.691Z,2.10
2023-01-17T22:05:43.332Z,2.00
2023-01-17T22:08:15.445Z,2.00
2023-01-17T22:10:46.379Z,2.00
2023-01-17T22:13:16.100Z,2.00
2023-01-17T22:15:45.070Z,2.00
2023-01-17T22:18:15.325Z,2.00
2023-01-17T22:20:44.502Z,2.00
2023-01-17T22:23:13.008Z,2.00
2023-01-17T22:25:41.532Z,2.00
2023-01-17T22:28:11.542Z,2.00
2023-01-17T22:30:40.179Z,2.00
2023-01-17T22:33:08.670Z,2.00
2023-01-17T22:35:37.174Z,2.00
2023-01-17T22:38:05.652Z,2.00
2023-01-17T22:40:38.311Z,2.00
2023-01-17T22:43:06.570Z,2.00
2023-01-17T22:45:36.492Z,2.00
2023-01-17T22:48:05.097Z,2.10
2023-01-17T22:50:33.568Z,2.10
2023-01-17T22:53:03.236Z,2.10
2023-01-17T22:55:31.754Z,2.10
2023-01-17T22:58:00.309Z,2.10
2023-01-17T23:00:28.960Z,2.10
2023-01-17T23:02:59.737Z,2.10
2023-01-17T23:05:28.473Z,2.20
2023-01-17T23:07:57.305Z,2.20
2023-01-17T23:10:43.623Z,2.20
2023-01-17T23:13:15.076Z,2.20
2023-01-17T23:16:00.943Z,2.20
2023-01-17T23:18:56.871Z,2.20
2023-01-17T23:21:45.591Z,2.30
2023-01-17T23:24:14.146Z,2.30
2023-01-17T23:27:02.812Z,2.30
2023-01-17T23:29:30.374Z,2.30
2023-01-17T23:31:58.996Z,2.30
2023-01-17T23:34:29.103Z,2.30
2023-01-17T23:36:57.743Z,2.30
2023-01-17T23:39:28.589Z,2.30
2023-01-17T23:42:14.704Z,2.30
2023-01-17T23:44:43.342Z,2.30
2023-01-17T23:47:11.912Z,2.30
2023-01-17T23:49:43.595Z,2.30
2023-01-17T23:52:12.192Z,2.20
2023-01-17T23:54:40.763Z,2.30
2023-01-17T23:57:09.400Z,2.30
2023-01-17T23:59:37.986Z,2.30
